Time;durP1;ratioP1;P1;durP2;ratioP2;P2;SDS_P1;SDS_P2;PMS_P1;PMS_P2;Temp;Humidity;BMP_temperature;BMP_pressure;BME280_temperature;BME280_humidity;BME280_pressure;Samples;Min_cycle;Max_cycle;Signal;HPM_P1;HPM_P2
2023/11/24 00:00:31;;;;;;;;;;;;;;;;;;5051934;28;19958;-47
2023/11/24 00:02:57;;;;;;;;;;;;;;;;;;5054673;28;19915;-47
2023/11/24 00:05:23;;;;;;;;;;;;;;;;;;5069125;28;20009;-47
2023/11/24 00:07:49;;;;;;;;;;;;;;;;;;5073094;28;20390;-47
2023/11/24 00:10:15;;;;;;;;;;;;;;;;;;5071798;28;20000;-47
2023/11/24 00:12:41;;;;;;;;;;;;;;;;;;5067864;28;19908;-47
2023/11/24 00:15:09;;;;;;;;;;;;;;;;;;5049076;28;19916;-47
2023/11/24 00:17:37;;;;;;;;;;;;;;;;;;5052922;28;19909;-50
2023/11/24 00:20:04;;;;;;;;;;;;;;;;;;5065883;28;19913;-47
2023/11/24 00:22:30;;;;;;;;;;;;;;;;;;5044252;22;19922;-57
2023/11/24 00:24:57;;;;;;;;;;;;;;;;;;4999550;28;19916;-57
2023/11/24 00:27:23;;;;;;;;;;;;;;;;;;5028165;28;20449;-59
2023/11/24 00:29:50;;;;;;;;;;;;;;;;;;5013165;28;19910;-59
2023/11/24 00:32:16;;;;;;;;;;;;;;;;;;5007429;28;20379;-57
2023/11/24 00:34:42;;;;;;;;;;;;;;;;;;4994394;28;19913;-54
2023/11/24 00:37:08;;;;;;;;;;;;;;;;;;4992167;28;19917;-58
2023/11/24 00:39:36;;;;;;;;;;;;;;;;;;4993094;28;20571;-58
2023/11/24 00:42:02;;;;;;;;;;;;;;;;;;4995684;28;20442;-58
2023/11/24 00:44:29;;;;;;;;;;;;;;;;;;5011826;28;19916;-55
2023/11/24 00:46:55;;;;;;;;;;;;;;;;;;5011487;28;19924;-56
2023/11/24 00:49:21;;;;;;;;;;;;;;;;;;5010926;28;20215;-58
2023/11/24 00:51:47;;;;;;;;;;;;;;;;;;5010244;28;19915;-59
2023/11/24 00:54:13;;;;;;;;;;;;;;;;;;5010155;28;20126;-58
2023/11/24 00:56:39;;;;;;;;;;;;;;;;;;4993822;28;19983;-56
2023/11/24 00:59:06;;;;;;;;;;;;;;;;;;4975813;28;19992;-58
2023/11/24 01:01:32;;;;;;;;;;;;;;;;;;4991330;28;19972;-55
2023/11/24 01:03:58;;;;;;;;;;;;;;;;;;5007769;28;19909;-56
2023/11/24 01:06:25;;;;;;;;;;;;;;;;;;4992244;28;20291;-57
2023/11/24 01:08:51;;;;;;;;;;;;;;;;;;4998387;28;20368;-58
2023/11/24 01:11:17;;;;;;;;;;;;;;;;;;4995206;28;20334;-55
2023/11/24 01:13:43;;;;;;;;;;;;;;;;;;4994738;28;19916;-56
2023/11/24 01:16:09;;;;;;;;;;;;;;;;;;4991453;28;20299;-55
2023/11/24 01:18:36;;;;;;;;;;;;;;;;;;4992801;28;20434;-57
2023/11/24 01:21:02;;;;;;;;;;;;;;;;;;5008777;28;19913;-57
2023/11/24 01:23:28;;;;;;;;;;;;;;;;;;5002133;28;20291;-55
2023/11/24 01:25:54;;;;;;;;;;;;;;;;;;5006407;28;20300;-56
2023/11/24 01:28:20;;;;;;;;;;;;;;;;;;5006322;28;19917;-59
2023/11/24 01:30:47;;;;;;;;;;;;;;;;;;4994133;28;20031;-58
2023/11/24 01:33:13;;;;;;;;;;;;;;;;;;4995694;28;19916;-56
2023/11/24 01:35:39;;;;;;;;;;;;;;;;;;4993714;28;19917;-58
2023/11/24 01:38:05;;;;;;;;;;;;;;;;;;4994515;28;19999;-60
2023/11/24 01:40:34;;;;;;;;;;;;;;;;;;4995286;28;19968;-60
2023/11/24 01:43:00;;;;;;;;;;;;;;;;;;5001061;28;19910;-58
2023/11/24 01:45:26;;;;;;;;;;;;;;;;;;4993357;28;19909;-57
2023/11/24 01:47:52;;;;;;;;;;;;;;;;;;5011985;28;19914;-58
2023/11/24 01:50:18;;;;;;;;;;;;;;;;;;5011333;28;20004;-59
2023/11/24 01:52:44;;;;;;;;;;;;;;;;;;4996496;28;19909;-53
2023/11/24 01:55:13;;;;;;;;;;;;;;;;;;4993788;28;19916;-56
2023/11/24 01:57:40;;;;;;;;;;;;;;;;;;5010460;28;20357;-56
2023/11/24 02:00:06;;;;;;;;;;;;;;;;;;5015661;28;19913;-57
2023/11/24 02:02:39;;;;;;;;;;;;;;;;;;5023264;28;19909;-54
2023/11/24 02:05:06;;;;;;;;;;;;;;;;;;5016820;28;19909;-57
2023/11/24 02:07:32;;;;;;;;;;;;;;;;;;5011541;28;19905;-56
2023/11/24 02:09:58;;;;;;;;;;;;;;;;;;5015525;28;19909;-56
2023/11/24 02:12:24;;;;;;;;;;;;;;;;;;4997722;28;19909;-56
2023/11/24 02:14:50;;;;;;;;;;;;;;;;;;4997977;28;20367;-55
2023/11/24 02:17:16;;;;;;;;;;;;;;;;;;4998041;28;19910;-57
2023/11/24 02:19:42;;;;;;;;;;;;;;;;;;5003768;28;19909;-53
2023/11/24 02:22:08;;;;;;;;;;;;;;;;;;5017080;28;19920;-53
2023/11/24 02:24:34;;;;;;;;;;;;;;;;;;5035130;28;19920;-57
2023/11/24 02:27:00;;;;;;;;;;;;;;;;;;5017265;28;19913;-56
2023/11/24 02:29:26;;;;;;;;;;;;;;;;;;5019709;28;20341;-55
2023/11/24 02:31:53;;;;;;;;;;;;;;;;;;4997426;28;20385;-53
2023/11/24 02:34:20;;;;;;;;;;;;;;;;;;4997219;28;20303;-57
2023/11/24 02:36:46;;;;;;;;;;;;;;;;;;4997024;28;20372;-55
2023/11/24 02:39:12;;;;;;;;;;;;;;;;;;5015032;28;20371;-54
2023/11/24 02:41:38;;;;;;;;;;;;;;;;;;4997375;28;20481;-55
2023/11/24 02:44:05;;;;;;;;;;;;;;;;;;5015046;28;19909;-56
2023/11/24 02:46:31;;;;;;;;;;;;;;;;;;5014981;28;19963;-52
2023/11/24 02:48:57;;;;;;;;;;;;;;;;;;4997413;28;20367;-54
2023/11/24 02:51:24;;;;;;;;;;;;;;;;;;4997307;28;19909;-57
2023/11/24 02:53:50;;;;;;;;;;;;;;;;;;4997060;28;20268;-56
2023/11/24 02:56:16;;;;;;;;;;;;;;;;;;5002806;28;19909;-57
2023/11/24 02:58:42;;;;;;;;;;;;;;;;;;5034528;28;19905;-56
2023/11/24 03:01:08;;;;;;;;;;;;;;;;;;5015890;28;20387;-56
2023/11/24 03:03:35;;;;;;;;;;;;;;;;;;5028941;28;19909;-56
2023/11/24 03:06:01;;;;;;;;;;;;;;;;;;5002940;28;19909;-54
2023/11/24 03:08:27;;;;;;;;;;;;;;;;;;5014314;28;19910;-55
2023/11/24 03:10:54;;;;;;;;;;;;;;;;;;5008393;28;20335;-53
2023/11/24 03:13:20;;;;;;;;;;;;;;;;;;5018661;28;20400;-55
2023/11/24 03:15:46;;;;;;;;;;;;;;;;;;5001280;28;19909;-56
2023/11/24 03:18:12;;;;;;;;;;;;;;;;;;5025345;28;19909;-57
2023/11/24 03:20:38;;;;;;;;;;;;;;;;;;5021791;28;19916;-58
2023/11/24 03:23:04;;;;;;;;;;;;;;;;;;5004074;28;19913;-59
2023/11/24 03:25:31;;;;;;;;;;;;;;;;;;4997715;28;19909;-56
2023/11/24 03:27:57;;;;;;;;;;;;;;;;;;4995978;28;20261;-54
2023/11/24 03:30:24;;;;;;;;;;;;;;;;;;5016493;28;19913;-56
2023/11/24 03:32:50;;;;;;;;;;;;;;;;;;5012901;28;19932;-54
2023/11/24 03:35:16;;;;;;;;;;;;;;;;;;5026963;28;19963;-54
2023/11/24 03:37:42;;;;;;;;;;;;;;;;;;5016047;28;19913;-55
2023/11/24 03:40:09;;;;;;;;;;;;;;;;;;5014284;28;19935;-53
2023/11/24 03:42:35;;;;;;;;;;;;;;;;;;5014031;28;20011;-55
2023/11/24 03:45:04;;;;;;;;;;;;;;;;;;5015679;28;20384;-57
2023/11/24 03:47:30;;;;;;;;;;;;;;;;;;5033545;28;19909;-56
2023/11/24 03:49:57;;;;;;;;;;;;;;;;;;5031419;28;19909;-55
2023/11/24 03:52:23;;;;;;;;;;;;;;;;;;5013975;28;19909;-54
2023/11/24 03:54:50;;;;;;;;;;;;;;;;;;5003743;28;19917;-57
2023/11/24 03:57:16;;;;;;;;;;;;;;;;;;5020796;28;19909;-55
2023/11/24 03:59:42;;;;;;;;;;;;;;;;;;5009995;28;20016;-54
2023/11/24 04:02:08;;;;;;;;;;;;;;;;;;5009847;28;19917;-58
2023/11/24 04:04:34;;;;;;;;;;;;;;;;;;5027190;28;20023;-55
2023/11/24 04:07:00;;;;;;;;;;;;;;;;;;5013128;28;19909;-55
2023/11/24 04:09:26;;;;;;;;;;;;;;;;;;5013646;28;19912;-55
2023/11/24 04:11:56;;;;;;;;;;;;;;;;;;4995614;28;19909;-54
2023/11/24 04:14:22;;;;;;;;;;;;;;;;;;5000261;28;19919;-56
2023/11/24 04:16:48;;;;;;;;;;;;;;;;;;5018752;28;19916;-56
2023/11/24 04:19:14;;;;;;;;;;;;;;;;;;5003083;28;19920;-57
2023/11/24 04:21:40;;;;;;;;;;;;;;;;;;5014529;28;20387;-57
2023/11/24 04:24:06;;;;;;;;;;;;;;;;;;5026926;28;19909;-53
2023/11/24 04:26:32;;;;;;;;;;;;;;;;;;5013731;28;19916;-56
2023/11/24 04:28:58;;;;;;;;;;;;;;;;;;5021612;28;19909;-55
2023/11/24 04:31:24;;;;;;;;;;;;;;;;;;5001812;28;19910;-55
2023/11/24 04:33:50;;;;;;;;;;;;;;;;;;5012879;28;19992;-54
2023/11/24 04:36:17;;;;;;;;;;;;;;;;;;5028453;28;19909;-56
2023/11/24 04:38:45;;;;;;;;;;;;;;;;;;5030100;28;19917;-53
2023/11/24 04:41:11;;;;;;;;;;;;;;;;;;5013489;28;19913;-53
2023/11/24 04:43:38;;;;;;;;;;;;;;;;;;5032370;28;20003;-52
2023/11/24 04:46:04;;;;;;;;;;;;;;;;;;5023955;28;19913;-55
2023/11/24 04:48:30;;;;;;;;;;;;;;;;;;4994631;28;19917;-54
2023/11/24 04:50:56;;;;;;;;;;;;;;;;;;4994618;28;20008;-53
2023/11/24 04:53:22;;;;;;;;;;;;;;;;;;5014427;28;19917;-59
2023/11/24 04:55:48;;;;;;;;;;;;;;;;;;5030831;28;19913;-56
2023/11/24 04:58:14;;;;;;;;;;;;;;;;;;5031768;28;19909;-58
2023/11/24 05:00:40;;;;;;;;;;;;;;;;;;5031744;28;19913;-56
2023/11/24 05:03:08;;;;;;;;;;;;;;;;;;5032199;28;19909;-58
2023/11/24 05:05:34;;;;;;;;;;;;;;;;;;5032113;28;19913;-55
2023/11/24 05:08:00;;;;;;;;;;;;;;;;;;5014709;28;19905;-54
2023/11/24 05:10:26;;;;;;;;;;;;;;;;;;5032417;28;19963;-57
2023/11/24 05:12:52;;;;;;;;;;;;;;;;;;5014338;28;20359;-55
2023/11/24 05:15:18;;;;;;;;;;;;;;;;;;5032245;28;19909;-59
2023/11/24 05:17:44;;;;;;;;;;;;;;;;;;5014572;28;19909;-55
2023/11/24 05:20:14;;;;;;;;;;;;;;;;;;5014502;28;19913;-56
2023/11/24 05:22:40;;;;;;;;;;;;;;;;;;5032088;28;19913;-57
2023/11/24 05:25:07;;;;;;;;;;;;;;;;;;5032172;28;19917;-58
2023/11/24 05:27:33;;;;;;;;;;;;;;;;;;5014524;28;20356;-59
2023/11/24 05:29:59;;;;;;;;;;;;;;;;;;5032027;28;20375;-57
2023/11/24 05:32:25;;;;;;;;;;;;;;;;;;5031759;28;19909;-58
2023/11/24 05:34:51;;;;;;;;;;;;;;;;;;5033458;28;19913;-57
2023/11/24 05:37:17;;;;;;;;;;;;;;;;;;5036098;28;19916;-60
2023/11/24 05:39:43;;;;;;;;;;;;;;;;;;5036090;28;20371;-58
2023/11/24 05:42:09;;;;;;;;;;;;;;;;;;5017983;28;19920;-58
2023/11/24 05:44:35;;;;;;;;;;;;;;;;;;5036080;28;19905;-59
2023/11/24 05:47:04;;;;;;;;;;;;;;;;;;5018370;28;19909;-60
2023/11/24 05:49:30;;;;;;;;;;;;;;;;;;5036017;28;19905;-58
2023/11/24 05:51:56;;;;;;;;;;;;;;;;;;5017991;28;19909;-59
2023/11/24 05:54:22;;;;;;;;;;;;;;;;;;5035754;28;19917;-55
2023/11/24 05:56:48;;;;;;;;;;;;;;;;;;5035765;28;19912;-60
2023/11/24 05:59:14;;;;;;;;;;;;;;;;;;5035637;28;19913;-56
2023/11/24 06:01:42;;;;;;;;;;;;;;;;;;5035287;28;19955;-58
2023/11/24 06:04:09;;;;;;;;;;;;;;;;;;5035822;28;19963;-56
2023/11/24 06:06:35;;;;;;;;;;;;;;;;;;5035646;28;19905;-58
2023/11/24 06:09:01;;;;;;;;;;;;;;;;;;5035548;28;19909;-55
2023/11/24 06:11:28;;;;;;;;;;;;;;;;;;5035310;28;19972;-59
2023/11/24 06:13:54;;;;;;;;;;;;;;;;;;5035544;28;19920;-56
2023/11/24 06:16:20;;;;;;;;;;;;;;;;;;5035422;28;19909;-58
2023/11/24 06:18:46;;;;;;;;;;;;;;;;;;5035331;28;19909;-58
2023/11/24 06:21:12;;;;;;;;;;;;;;;;;;5017775;28;19913;-56
2023/11/24 06:23:39;;;;;;;;;;;;;;;;;;5017725;28;20455;-59
2023/11/24 06:26:05;;;;;;;;;;;;;;;;;;5035262;28;19911;-58
2023/11/24 06:28:31;;;;;;;;;;;;;;;;;;5017405;28;19909;-59
2023/11/24 06:30:57;;;;;;;;;;;;;;;;;;5034833;28;19916;-59
2023/11/24 06:33:24;;;;;;;;;;;;;;;;;;4998024;28;19979;-59
2023/11/24 06:35:50;;;;;;;;;;;;;;;;;;5015381;28;19909;-59
2023/11/24 06:38:16;;;;;;;;;;;;;;;;;;5015328;28;20582;-56
2023/11/24 06:40:43;;;;;;;;;;;;;;;;;;4997436;28;19971;-59
2023/11/24 06:43:09;;;;;;;;;;;;;;;;;;4997603;28;20276;-57
2023/11/24 06:45:35;;;;;;;;;;;;;;;;;;5014839;28;20439;-57
2023/11/24 06:48:01;;;;;;;;;;;;;;;;;;5015132;28;19909;-59
2023/11/24 06:50:27;;;;;;;;;;;;;;;;;;5014895;28;19952;-58
2023/11/24 06:52:53;;;;;;;;;;;;;;;;;;5014774;28;19917;-54
2023/11/24 06:55:19;;;;;;;;;;;;;;;;;;4997295;28;19996;-54
2023/11/24 06:57:46;;;;;;;;;;;;;;;;;;4997385;28;19916;-57
2023/11/24 07:00:17;;;;;;;;;;;;;;;;;;5014776;28;19913;-57
2023/11/24 07:02:43;;;;;;;;;;;;;;;;;;5014606;28;19916;-57
2023/11/24 07:05:09;;;;;;;;;;;;;;;;;;5014749;28;20291;-59
2023/11/24 07:07:35;;;;;;;;;;;;;;;;;;4997244;28;20393;-58
2023/11/24 07:10:01;;;;;;;;;;;;;;;;;;5014789;28;20380;-59
2023/11/24 07:12:27;;;;;;;;;;;;;;;;;;5014407;28;20367;-61
2023/11/24 07:14:53;;;;;;;;;;;;;;;;;;5014442;28;19916;-58
2023/11/24 07:17:19;;;;;;;;;;;;;;;;;;5014488;28;19916;-51
2023/11/24 07:19:45;;;;;;;;;;;;;;;;;;5014369;28;20399;-55
2023/11/24 07:22:11;;;;;;;;;;;;;;;;;;5012900;28;19928;-57
2023/11/24 07:24:38;;;;;;;;;;;;;;;;;;5014017;28;19909;-54
2023/11/24 07:27:04;;;;;;;;;;;;;;;;;;4996697;28;19913;-57
2023/11/24 07:29:31;;;;;;;;;;;;;;;;;;5013916;28;20338;-56
2023/11/24 07:31:57;;;;;;;;;;;;;;;;;;4996202;28;20008;-50
2023/11/24 07:34:23;;;;;;;;;;;;;;;;;;4996360;28;19909;-50
2023/11/24 07:36:49;;;;;;;;;;;;;;;;;;4996402;28;19913;-63
2023/11/24 07:39:15;;;;;;;;;;;;;;;;;;5013786;28;20482;-62
2023/11/24 07:41:41;;;;;;;;;;;;;;;;;;5013579;28;20400;-57
2023/11/24 07:44:07;;;;;;;;;;;;;;;;;;4996418;28;19916;-58
2023/11/24 07:46:34;;;;;;;;;;;;;;;;;;5013749;28;19913;-57
2023/11/24 07:49:00;;;;;;;;;;;;;;;;;;5014095;28;19910;-56
2023/11/24 07:51:26;;;;;;;;;;;;;;;;;;5013060;28;19910;-57
2023/11/24 07:53:52;;;;;;;;;;;;;;;;;;5013857;28;19917;-58
2023/11/24 07:56:18;;;;;;;;;;;;;;;;;;5013420;28;20016;-55
2023/11/24 07:58:44;;;;;;;;;;;;;;;;;;5013143;28;19913;-57
2023/11/24 08:01:10;;;;;;;;;;;;;;;;;;5012924;28;19920;-59
2023/11/24 08:03:36;;;;;;;;;;;;;;;;;;5013753;28;19916;-55
2023/11/24 08:06:07;;;;;;;;;;;;;;;;;;5013167;28;19956;-58
2023/11/24 08:08:33;;;;;;;;;;;;;;;;;;4995968;28;20327;-56
2023/11/24 08:10:59;;;;;;;;;;;;;;;;;;5012899;28;19906;-57
2023/11/24 08:13:25;;;;;;;;;;;;;;;;;;5013512;28;19909;-59
2023/11/24 08:15:51;;;;;;;;;;;;;;;;;;5013180;28;19964;-55
2023/11/24 08:18:17;;;;;;;;;;;;;;;;;;5013426;28;19905;-57
2023/11/24 08:20:43;;;;;;;;;;;;;;;;;;5012415;28;19952;-57
2023/11/24 08:23:13;;;;;;;;;;;;;;;;;;5013354;28;19913;-58
2023/11/24 08:25:39;;;;;;;;;;;;;;;;;;5013048;28;19916;-53
2023/11/24 08:28:05;;;;;;;;;;;;;;;;;;5013374;28;20279;-57
2023/11/24 08:30:34;;;;;;;;;;;;;;;;;;5012598;28;20281;-54
2023/11/24 08:33:00;;;;;;;;;;;;;;;;;;5013081;28;19916;-56
2023/11/24 08:35:26;;;;;;;;;;;;;;;;;;5012523;28;19905;-55
2023/11/24 08:37:52;;;;;;;;;;;;;;;;;;5013147;28;20010;-54
2023/11/24 08:40:21;;;;;;;;;;;;;;;;;;5012484;28;19913;-55
2023/11/24 08:42:48;;;;;;;;;;;;;;;;;;5012772;28;19909;-60
2023/11/24 08:45:14;;;;;;;;;;;;;;;;;;5012463;28;19963;-59
2023/11/24 08:47:41;;;;;;;;;;;;;;;;;;4995344;28;19979;-55
2023/11/24 08:50:08;;;;;;;;;;;;;;;;;;5012840;28;19910;-55
2023/11/24 08:52:35;;;;;;;;;;;;;;;;;;5012532;28;19913;-57
2023/11/24 08:55:01;;;;;;;;;;;;;;;;;;5012946;28;19911;-55
2023/11/24 08:57:27;;;;;;;;;;;;;;;;;;5012740;28;19909;-55
2023/11/24 08:59:54;;;;;;;;;;;;;;;;;;4995137;28;19909;-60
2023/11/24 09:02:22;;;;;;;;;;;;;;;;;;5012656;28;19913;-57
2023/11/24 09:04:49;;;;;;;;;;;;;;;;;;5012781;28;19905;-57
2023/11/24 09:07:15;;;;;;;;;;;;;;;;;;5012623;28;19909;-60
2023/11/24 09:09:41;;;;;;;;;;;;;;;;;;5012568;28;19916;-58
2023/11/24 09:12:07;;;;;;;;;;;;;;;;;;5012394;28;19996;-58
2023/11/24 09:14:38;;;;;;;;;;;;;;;;;;5012583;28;19971;-58
2023/11/24 09:17:04;;;;;;;;;;;;;;;;;;5012575;28;19913;-55
2023/11/24 09:19:31;;;;;;;;;;;;;;;;;;5012468;28;20054;-58
2023/11/24 09:22:00;;;;;;;;;;;;;;;;;;4994396;28;20437;-55
2023/11/24 09:24:26;;;;;;;;;;;;;;;;;;4994821;28;19971;-49
2023/11/24 09:26:53;;;;;;;;;;;;;;;;;;4994958;28;19917;-56
2023/11/24 09:29:19;;;;;;;;;;;;;;;;;;5012386;28;20368;-58
2023/11/24 09:31:45;;;;;;;;;;;;;;;;;;5012105;28;20390;-54
2023/11/24 09:34:11;;;;;;;;;;;;;;;;;;5012454;28;19910;-56
2023/11/24 09:36:41;;;;;;;;;;;;;;;;;;5012362;28;19910;-60
2023/11/24 09:39:07;;;;;;;;;;;;;;;;;;4994756;28;19914;-56
2023/11/24 09:41:34;;;;;;;;;;;;;;;;;;5011960;28;19936;-57
2023/11/24 09:44:00;;;;;;;;;;;;;;;;;;4994738;28;20371;-58
2023/11/24 09:46:26;;;;;;;;;;;;;;;;;;5012112;28;19955;-57
2023/11/24 09:48:52;;;;;;;;;;;;;;;;;;4994759;28;19917;-59
2023/11/24 09:51:18;;;;;;;;;;;;;;;;;;5011884;28;19906;-56
2023/11/24 09:53:44;;;;;;;;;;;;;;;;;;4994636;28;19913;-57
2023/11/24 09:56:10;;;;;;;;;;;;;;;;;;5012157;28;20372;-59
2023/11/24 09:58:36;;;;;;;;;;;;;;;;;;5012054;28;19916;-58
2023/11/24 10:01:05;;;;;;;;;;;;;;;;;;5011744;28;20007;-57
2023/11/24 10:03:31;;;;;;;;;;;;;;;;;;5012012;28;19940;-58
2023/11/24 10:05:57;;;;;;;;;;;;;;;;;;5012011;28;19909;-55
2023/11/24 10:08:23;;;;;;;;;;;;;;;;;;5011979;28;19910;-57
2023/11/24 10:10:49;;;;;;;;;;;;;;;;;;5011811;28;20104;-53
2023/11/24 10:13:15;;;;;;;;;;;;;;;;;;5011822;28;19996;-58
2023/11/24 10:15:41;;;;;;;;;;;;;;;;;;5011971;28;19920;-58
2023/11/24 10:18:08;;;;;;;;;;;;;;;;;;5012193;28;20621;-57
2023/11/24 10:20:35;;;;;;;;;;;;;;;;;;4994645;28;19917;-59
2023/11/24 10:23:03;;;;;;;;;;;;;;;;;;5015661;28;19967;-59
2023/11/24 10:25:33;;;;;;;;;;;;;;;;;;5015516;28;20380;-58
2023/11/24 10:28:10;;;;;;;;;;;;;;;;;;5015679;28;20264;-58
2023/11/24 10:30:37;;;;;;;;;;;;;;;;;;4997657;28;19909;-57
2023/11/24 10:33:03;;;;;;;;;;;;;;;;;;5015401;28;19905;-56
2023/11/24 10:35:30;;;;;;;;;;;;;;;;;;5015393;28;19909;-60
2023/11/24 10:37:56;;;;;;;;;;;;;;;;;;5015359;28;19906;-58
2023/11/24 10:40:22;;;;;;;;;;;;;;;;;;4997533;28;19924;-57
2023/11/24 10:42:50;;;;;;;;;;;;;;;;;;4997496;28;20004;-61
2023/11/24 10:45:18;;;;;;;;;;;;;;;;;;5014943;28;20354;-58
2023/11/24 10:47:45;;;;;;;;;;;;;;;;;;4997439;28;19933;-59
2023/11/24 10:50:12;;;;;;;;;;;;;;;;;;5015062;28;19913;-58
2023/11/24 10:52:38;;;;;;;;;;;;;;;;;;4997197;28;19905;-58
2023/11/24 10:55:04;;;;;;;;;;;;;;;;;;5014919;28;19913;-58
2023/11/24 10:57:30;;;;;;;;;;;;;;;;;;5014778;28;20375;-57
2023/11/24 10:59:56;;;;;;;;;;;;;;;;;;5014903;28;20011;-57
2023/11/24 11:02:22;;;;;;;;;;;;;;;;;;5014461;28;19924;-54
2023/11/24 11:04:52;;;;;;;;;;;;;;;;;;5014781;28;20080;-56
2023/11/24 11:07:18;;;;;;;;;;;;;;;;;;5014762;28;19909;-58
2023/11/24 11:09:48;;;;;;;;;;;;;;;;;;5014567;28;19920;-59
2023/11/24 11:12:19;;;;;;;;;;;;;;;;;;5014350;28;19963;-60
2023/11/24 11:14:46;;;;;;;;;;;;;;;;;;4997051;28;19979;-60
2023/11/24 11:17:12;;;;;;;;;;;;;;;;;;4997044;28;19906;-59
2023/11/24 11:19:38;;;;;;;;;;;;;;;;;;5015989;28;19909;-55
2023/11/24 11:22:07;;;;;;;;;;;;;;;;;;5029396;28;19987;-61
2023/11/24 11:24:34;;;;;;;;;;;;;;;;;;5034460;28;20336;-60
2023/11/24 11:27:00;;;;;;;;;;;;;;;;;;5018128;28;20040;-60
2023/11/24 11:29:26;;;;;;;;;;;;;;;;;;5014168;28;20283;-58
2023/11/24 11:31:52;;;;;;;;;;;;;;;;;;5012688;28;20320;-55
2023/11/24 11:34:19;;;;;;;;;;;;;;;;;;4992614;28;19913;-56
2023/11/24 11:36:45;;;;;;;;;;;;;;;;;;5000421;28;20566;-62
2023/11/24 11:39:17;;;;;;;;;;;;;;;;;;4992738;28;19936;-57
2023/11/24 11:41:49;;;;;;;;;;;;;;;;;;4991018;28;19924;-56
2023/11/24 11:44:16;;;;;;;;;;;;;;;;;;5012738;28;19910;-60
2023/11/24 11:46:42;;;;;;;;;;;;;;;;;;5019686;28;19909;-54
2023/11/24 11:49:09;;;;;;;;;;;;;;;;;;4995148;28;20331;-57
2023/11/24 11:51:35;;;;;;;;;;;;;;;;;;5012254;28;20277;-56
2023/11/24 11:54:01;;;;;;;;;;;;;;;;;;5008169;28;19915;-56
2023/11/24 11:56:27;;;;;;;;;;;;;;;;;;5031668;28;19917;-54
2023/11/24 11:58:53;;;;;;;;;;;;;;;;;;5030355;28;19913;-57
2023/11/24 12:01:19;;;;;;;;;;;;;;;;;;5024931;28;20039;-57
2023/11/24 12:03:46;;;;;;;;;;;;;;;;;;5024050;28;19910;-55
2023/11/24 12:06:12;;;;;;;;;;;;;;;;;;5018883;28;19936;-57
2023/11/24 12:08:38;;;;;;;;;;;;;;;;;;5030584;28;20394;-60
2023/11/24 12:11:05;;;;;;;;;;;;;;;;;;5031234;28;19916;-53
2023/11/24 12:13:31;;;;;;;;;;;;;;;;;;5012403;28;20296;-51
2023/11/24 12:15:59;;;;;;;;;;;;;;;;;;5027768;28;20429;-56
2023/11/24 12:18:25;;;;;;;;;;;;;;;;;;5012012;28;19910;-55
2023/11/24 12:20:51;;;;;;;;;;;;;;;;;;5012129;28;19918;-53
2023/11/24 12:23:18;;;;;;;;;;;;;;;;;;5013796;28;19961;-55
2023/11/24 12:25:43;;;;;;;;;;;;;;;;;;5012337;28;19940;-55
2023/11/24 12:28:10;;;;;;;;;;;;;;;;;;5006806;28;19909;-57
2023/11/24 12:30:41;;;;;;;;;;;;;;;;;;5016032;28;19909;-56
2023/11/24 12:33:08;;;;;;;;;;;;;;;;;;5025282;28;20683;-58
2023/11/24 12:35:34;;;;;;;;;;;;;;;;;;5013163;28;19909;-56
2023/11/24 12:38:00;;;;;;;;;;;;;;;;;;5024951;28;19909;-56
2023/11/24 12:40:27;;;;;;;;;;;;;;;;;;5032597;28;19913;-56
2023/11/24 12:42:54;;;;;;;;;;;;;;;;;;5026832;28;19917;-54
2023/11/24 12:45:21;;;;;;;;;;;;;;;;;;5014734;28;19909;-54
2023/11/24 12:47:47;;;;;;;;;;;;;;;;;;5020573;28;19909;-55
2023/11/24 12:50:14;;;;;;;;;;;;;;;;;;5012774;28;19909;-58
2023/11/24 12:52:41;;;;;;;;;;;;;;;;;;5002888;28;19909;-58
2023/11/24 12:55:07;;;;;;;;;;;;;;;;;;5032501;28;20462;-58
2023/11/24 12:57:33;;;;;;;;;;;;;;;;;;5022513;28;19910;-59
2023/11/24 13:00:06;;;;;;;;;;;;;;;;;;5012693;28;19948;-60
2023/11/24 13:02:32;;;;;;;;;;;;;;;;;;5025819;28;19914;-54
2023/11/24 13:04:58;;;;;;;;;;;;;;;;;;5012681;28;19909;-60
2023/11/24 13:07:24;;;;;;;;;;;;;;;;;;5020343;28;19944;-59
2023/11/24 13:09:50;;;;;;;;;;;;;;;;;;5014616;28;19967;-59
2023/11/24 13:12:18;;;;;;;;;;;;;;;;;;5028101;28;19905;-59
2023/11/24 13:14:44;;;;;;;;;;;;;;;;;;5012556;28;19917;-59
2023/11/24 13:17:11;;;;;;;;;;;;;;;;;;5023536;28;19952;-60
2023/11/24 13:19:37;;;;;;;;;;;;;;;;;;5012715;28;19909;-60
2023/11/24 13:22:08;;;;;;;;;;;;;;;;;;5014909;28;19920;-59
2023/11/24 13:24:35;;;;;;;;;;;;;;;;;;5032228;28;20283;-59
2023/11/24 13:27:03;;;;;;;;;;;;;;;;;;5028338;28;19915;-60
2023/11/24 13:29:30;;;;;;;;;;;;;;;;;;5032118;28;19916;-59
2023/11/24 13:31:56;;;;;;;;;;;;;;;;;;5019341;28;20375;-60
2023/11/24 13:34:22;;;;;;;;;;;;;;;;;;5014331;28;19913;-60
2023/11/24 13:36:48;;;;;;;;;;;;;;;;;;5003365;28;19956;-60
2023/11/24 13:39:22;;;;;;;;;;;;;;;;;;5011766;28;19920;-60
2023/11/24 13:41:48;;;;;;;;;;;;;;;;;;5030137;28;19917;-59
2023/11/24 13:44:14;;;;;;;;;;;;;;;;;;5011059;28;19910;-57
2023/11/24 13:46:42;;;;;;;;;;;;;;;;;;5015147;28;19910;-58
2023/11/24 13:49:11;;;;;;;;;;;;;;;;;;5030372;28;19909;-58
2023/11/24 13:51:37;;;;;;;;;;;;;;;;;;5030265;28;19913;-59
2023/11/24 13:54:03;;;;;;;;;;;;;;;;;;4995035;28;19916;-60
2023/11/24 13:56:29;;;;;;;;;;;;;;;;;;5012884;28;20000;-48
2023/11/24 13:58:55;;;;;;;;;;;;;;;;;;4996723;28;19913;-49
2023/11/24 14:01:21;;;;;;;;;;;;;;;;;;5006653;28;19932;-59
2023/11/24 14:03:47;;;;;;;;;;;;;;;;;;5018945;28;19917;-59
2023/11/24 14:06:14;;;;;;;;;;;;;;;;;;4996667;28;20008;-59
2023/11/24 14:08:40;;;;;;;;;;;;;;;;;;5020094;28;20635;-59
2023/11/24 14:11:07;;;;;;;;;;;;;;;;;;5014943;28;19952;-58
2023/11/24 14:13:35;;;;;;;;;;;;;;;;;;5017048;28;19920;-58
2023/11/24 14:16:04;;;;;;;;;;;;;;;;;;5023194;28;19978;-58
2023/11/24 14:18:32;;;;;;;;;;;;;;;;;;5014503;28;20016;-59
2023/11/24 14:20:58;;;;;;;;;;;;;;;;;;4994648;28;19914;-59
2023/11/24 14:23:24;;;;;;;;;;;;;;;;;;4995817;28;19964;-59
2023/11/24 14:25:50;;;;;;;;;;;;;;;;;;4995835;28;19909;-59
2023/11/24 14:28:16;;;;;;;;;;;;;;;;;;5010868;28;19916;-58
2023/11/24 14:30:43;;;;;;;;;;;;;;;;;;5007618;28;20398;-59
2023/11/24 14:33:12;;;;;;;;;;;;;;;;;;5035074;28;20070;-59
2023/11/24 14:35:39;;;;;;;;;;;;;;;;;;5020991;28;19909;-60
2023/11/24 14:38:06;;;;;;;;;;;;;;;;;;5014983;28;20347;-61
2023/11/24 14:40:32;;;;;;;;;;;;;;;;;;5014627;28;19913;-60
2023/11/24 14:42:58;;;;;;;;;;;;;;;;;;5015172;28;19909;-60
2023/11/24 14:45:25;;;;;;;;;;;;;;;;;;4997386;28;20342;-62
2023/11/24 14:47:53;;;;;;;;;;;;;;;;;;5014910;28;20004;-60
2023/11/24 14:50:19;;;;;;;;;;;;;;;;;;5015174;28;19909;-59
2023/11/24 14:52:46;;;;;;;;;;;;;;;;;;5015151;28;20330;-58
2023/11/24 14:55:13;;;;;;;;;;;;;;;;;;5017729;28;19972;-59
2023/11/24 14:57:39;;;;;;;;;;;;;;;;;;5017023;28;19945;-60
2023/11/24 15:00:24;;;;;;;;;;;;;;;;;;5014524;28;19914;-59
2023/11/24 15:02:51;;;;;;;;;;;;;;;;;;4995055;28;19920;-59
2023/11/24 15:05:17;;;;;;;;;;;;;;;;;;5010126;28;20348;-59
2023/11/24 15:07:46;;;;;;;;;;;;;;;;;;5013956;28;19996;-59
2023/11/24 15:10:13;;;;;;;;;;;;;;;;;;5015348;28;19951;-59
2023/11/24 15:12:43;;;;;;;;;;;;;;;;;;5013692;28;19909;-59
2023/11/24 15:15:09;;;;;;;;;;;;;;;;;;5013010;28;19916;-49
2023/11/24 15:17:37;;;;;;;;;;;;;;;;;;4996487;28;20354;-52
2023/11/24 15:20:08;;;;;;;;;;;;;;;;;;5014341;28;19910;-51
2023/11/24 15:22:36;;;;;;;;;;;;;;;;;;5014175;28;19917;-57
2023/11/24 15:25:03;;;;;;;;;;;;;;;;;;5014468;28;19905;-50
2023/11/24 15:27:30;;;;;;;;;;;;;;;;;;5014415;28;19971;-53
2023/11/24 15:29:56;;;;;;;;;;;;;;;;;;5014111;28;19916;-51
2023/11/24 15:32:23;;;;;;;;;;;;;;;;;;4996340;28;19956;-55
2023/11/24 15:34:51;;;;;;;;;;;;;;;;;;5014059;28;19916;-49
2023/11/24 15:37:17;;;;;;;;;;;;;;;;;;4996389;28;19996;-52
2023/11/24 15:39:47;;;;;;;;;;;;;;;;;;5014017;28;20299;-51
2023/11/24 15:42:16;;;;;;;;;;;;;;;;;;5013625;28;20368;-53
2023/11/24 15:44:44;;;;;;;;;;;;;;;;;;5012787;28;19909;-51
2023/11/24 15:47:10;;;;;;;;;;;;;;;;;;4996317;28;19916;-52
2023/11/24 15:49:38;;;;;;;;;;;;;;;;;;4980065;28;19909;-54
2023/11/24 15:52:07;;;;;;;;;;;;;;;;;;5013504;28;19913;-54
2023/11/24 15:54:34;;;;;;;;;;;;;;;;;;4996091;28;20272;-53
2023/11/24 15:57:00;;;;;;;;;;;;;;;;;;5013659;28;20347;-56
2023/11/24 15:59:28;;;;;;;;;;;;;;;;;;5013626;28;19909;-55
2023/11/24 16:02:00;;;;;;;;;;;;;;;;;;5013277;28;20007;-53
2023/11/24 16:04:32;;;;;;;;;;;;;;;;;;4996043;28;20077;-54
2023/11/24 16:07:00;;;;;;;;;;;;;;;;;;5013588;28;20287;-53
2023/11/24 16:09:28;;;;;;;;;;;;;;;;;;5013516;28;19996;-53
2023/11/24 16:11:55;;;;;;;;;;;;;;;;;;5005246;28;19910;-52
2023/11/24 16:14:21;;;;;;;;;;;;;;;;;;4997029;28;19996;-56
2023/11/24 16:16:48;;;;;;;;;;;;;;;;;;5013088;28;19909;-50
2023/11/24 16:19:14;;;;;;;;;;;;;;;;;;5011499;28;19971;-53
2023/11/24 16:21:41;;;;;;;;;;;;;;;;;;4995126;28;19920;-56
2023/11/24 16:24:07;;;;;;;;;;;;;;;;;;4995635;28;19955;-50
2023/11/24 16:26:33;;;;;;;;;;;;;;;;;;4994567;28;19964;-50
2023/11/24 16:28:59;;;;;;;;;;;;;;;;;;5013082;28;20331;-55
2023/11/24 16:31:25;;;;;;;;;;;;;;;;;;5012873;28;19955;-53
2023/11/24 16:33:51;;;;;;;;;;;;;;;;;;5013140;28;19910;-51
2023/11/24 16:36:18;;;;;;;;;;;;;;;;;;5013134;28;19960;-54
2023/11/24 16:38:44;;;;;;;;;;;;;;;;;;5012980;28;19995;-50
2023/11/24 16:41:10;;;;;;;;;;;;;;;;;;5012634;28;19921;-50